createdAt,value
2023-07-16T00:02:21.380Z,1.65
2023-07-16T00:04:47.885Z,2.13
2023-07-16T00:07:14.325Z,2.50
2023-07-16T00:09:40.710Z,2.13
2023-07-16T00:12:07.356Z,2.33
2023-07-16T00:14:33.777Z,2.25
2023-07-16T00:17:00.360Z,2.28
2023-07-16T00:19:27.148Z,1.85
2023-07-16T00:21:53.570Z,1.80
2023-07-16T00:24:20.011Z,1.50
2023-07-16T00:26:46.427Z,1.88
2023-07-16T00:29:12.946Z,2.67
2023-07-16T00:31:40.784Z,3.03
2023-07-16T00:34:07.274Z,2.40
2023-07-16T00:36:33.811Z,2.00
2023-07-16T00:39:00.215Z,2.78
2023-07-16T00:41:26.639Z,2.67
2023-07-16T00:43:55.216Z,2.20
2023-07-16T00:46:22.201Z,2.08
2023-07-16T00:48:48.671Z,2.50
2023-07-16T00:51:15.630Z,2.53
2023-07-16T00:53:42.817Z,2.25
2023-07-16T00:56:11.441Z,2.05
2023-07-16T00:58:37.966Z,2.83
2023-07-16T01:01:04.369Z,2.28
2023-07-16T01:03:30.838Z,2.65
2023-07-16T01:06:01.864Z,2.28
2023-07-16T01:08:33.544Z,1.65
2023-07-16T01:11:00.875Z,2.75
2023-07-16T01:13:27.694Z,1.85
2023-07-16T01:15:55.168Z,2.65
2023-07-16T01:18:21.605Z,1.98
2023-07-16T01:20:48.254Z,1.92
2023-07-16T01:23:27.173Z,2.33
2023-07-16T01:25:59.633Z,2.47
2023-07-16T01:28:45.125Z,2.58
2023-07-16T01:31:11.865Z,2.60
2023-07-16T01:33:41.896Z,2.25
2023-07-16T01:36:08.823Z,2.50
2023-07-16T01:38:36.120Z,2.67
2023-07-16T01:41:02.729Z,2.58
2023-07-16T01:43:29.598Z,2.42
2023-07-16T01:45:56.215Z,2.80
2023-07-16T01:48:31.281Z,2.88
2023-07-16T01:50:57.824Z,2.40
2023-07-16T01:53:24.338Z,2.92
2023-07-16T01:55:50.852Z,2.55
2023-07-16T01:58:17.333Z,2.53
2023-07-16T02:00:43.813Z,2.45
2023-07-16T02:03:10.316Z,2.38
2023-07-16T02:05:36.831Z,3.08
2023-07-16T02:08:04.165Z,2.33
2023-07-16T02:10:33.319Z,2.90
2023-07-16T02:12:59.738Z,2.78
2023-07-16T02:15:26.255Z,3.28
2023-07-16T02:17:52.818Z,2.45
2023-07-16T02:20:19.285Z,3.40
2023-07-16T02:22:46.792Z,2.92
2023-07-16T02:25:13.268Z,2.42
2023-07-16T02:27:39.829Z,3.63
2023-07-16T02:30:07.736Z,2.55
2023-07-16T02:32:34.749Z,2.55
2023-07-16T02:35:01.591Z,3.28
2023-07-16T02:37:28.528Z,2.58
2023-07-16T02:39:57.149Z,3.30
2023-07-16T02:42:23.709Z,3.13
2023-07-16T02:44:50.823Z,2.90
2023-07-16T02:47:17.389Z,3.30
2023-07-16T02:49:43.931Z,3.10
2023-07-16T02:52:10.552Z,3.22
2023-07-16T02:54:37.578Z,2.83
2023-07-16T02:57:04.284Z,3.50
2023-07-16T02:59:30.804Z,3.88
2023-07-16T03:01:57.620Z,2.78
2023-07-16T03:04:24.130Z,3.22
2023-07-16T03:06:50.651Z,2.97
2023-07-16T03:09:17.080Z,3.65
2023-07-16T03:11:43.610Z,3.30
2023-07-16T03:14:10.127Z,3.35
2023-07-16T03:16:36.527Z,2.63
2023-07-16T03:19:04.119Z,3.28
2023-07-16T03:21:30.839Z,2.75
2023-07-16T03:23:57.433Z,3.00
2023-07-16T03:26:23.948Z,2.75
2023-07-16T03:28:50.527Z,2.95
2023-07-16T03:31:17.829Z,2.92
2023-07-16T03:33:46.568Z,2.70
2023-07-16T03:36:13.890Z,2.75
2023-07-16T03:38:42.216Z,2.85
2023-07-16T03:41:08.606Z,2.95
2023-07-16T03:43:35.560Z,2.63
2023-07-16T03:46:15.206Z,2.75
2023-07-16T03:48:42.030Z,3.17
2023-07-16T03:51:08.514Z,2.90
2023-07-16T03:53:34.859Z,2.58
2023-07-16T03:56:01.527Z,3.90
2023-07-16T03:58:30.416Z,2.65
2023-07-16T04:00:57.033Z,2.50
2023-07-16T04:03:24.065Z,2.80
2023-07-16T04:05:50.590Z,3.67
2023-07-16T04:08:17.968Z,2.30
2023-07-16T04:10:44.402Z,3.20
2023-07-16T04:13:10.824Z,3.03
2023-07-16T04:15:37.357Z,2.97
2023-07-16T04:18:05.415Z,2.88
2023-07-16T04:20:31.990Z,2.88
2023-07-16T04:22:58.499Z,2.47
2023-07-16T04:25:25.048Z,3.45
2023-07-16T04:27:51.472Z,3.35
2023-07-16T04:30:18.406Z,2.55
2023-07-16T04:32:44.812Z,3.10
2023-07-16T04:35:11.351Z,3.15
2023-07-16T04:37:37.834Z,3.55
2023-07-16T04:40:05.537Z,3.58
2023-07-16T04:42:31.948Z,3.38
2023-07-16T04:44:58.513Z,3.58
2023-07-16T04:47:24.978Z,3.50
2023-07-16T04:49:51.611Z,3.53
2023-07-16T04:52:18.067Z,2.92
2023-07-16T04:54:44.514Z,3.20
2023-07-16T04:57:10.869Z,3.25
2023-07-16T04:59:37.243Z,3.28
2023-07-16T05:02:06.687Z,3.22
2023-07-16T05:04:33.711Z,3.47
2023-07-16T05:07:00.312Z,3.67
2023-07-16T05:09:26.782Z,3.45
2023-07-16T05:11:53.215Z,3.05
2023-07-16T05:14:19.627Z,3.28
2023-07-16T05:16:46.238Z,3.45
2023-07-16T05:19:12.727Z,3.00
2023-07-16T05:21:39.175Z,3.05
2023-07-16T05:24:05.944Z,3.15
2023-07-16T05:26:34.170Z,3.17
2023-07-16T05:29:00.625Z,3.97
2023-07-16T05:31:27.062Z,3.75
2023-07-16T05:33:53.581Z,3.30
2023-07-16T05:36:20.029Z,3.80
2023-07-16T05:38:46.382Z,3.38
2023-07-16T05:41:12.991Z,3.83
2023-07-16T05:43:39.457Z,2.97
2023-07-16T05:46:06.485Z,3.20
2023-07-16T05:48:33.235Z,2.72
2023-07-16T05:50:59.673Z,3.88
2023-07-16T05:53:26.203Z,3.40
2023-07-16T05:55:53.241Z,3.95
2023-07-16T05:58:19.795Z,3.72
2023-07-16T06:00:46.184Z,4.10
2023-07-16T06:03:12.810Z,3.92
2023-07-16T06:05:39.267Z,3.60
2023-07-16T06:08:05.655Z,3.90
2023-07-16T06:10:34.428Z,3.70
2023-07-16T06:13:00.849Z,3.35
2023-07-16T06:15:27.299Z,2.97
2023-07-16T06:17:53.737Z,3.88
2023-07-16T06:20:20.231Z,3.63
2023-07-16T06:22:46.715Z,3.70
2023-07-16T06:25:13.907Z,3.65
2023-07-16T06:27:40.410Z,3.35
2023-07-16T06:30:07.262Z,3.97
2023-07-16T06:32:33.777Z,4.38
2023-07-16T06:35:00.728Z,3.47
2023-07-16T06:37:27.167Z,3.15
2023-07-16T06:39:53.622Z,3.20
2023-07-16T06:42:20.072Z,3.00
2023-07-16T06:44:48.808Z,3.17
2023-07-16T06:47:15.273Z,3.35
2023-07-16T06:49:42.751Z,3.30
2023-07-16T06:52:09.506Z,2.90
2023-07-16T06:54:36.027Z,3.55
2023-07-16T06:57:02.473Z,3.53
2023-07-16T06:59:29.041Z,3.20
2023-07-16T07:01:55.404Z,3.33
2023-07-16T07:04:22.032Z,3.35
2023-07-16T07:06:48.557Z,3.42
2023-07-16T07:09:14.982Z,3.47
2023-07-16T07:11:41.382Z,3.67
2023-07-16T07:14:09.322Z,3.33
2023-07-16T07:16:37.420Z,4.35
2023-07-16T07:19:03.900Z,4.43
2023-07-16T07:21:30.400Z,3.50
2023-07-16T07:23:56.770Z,3.95
2023-07-16T07:26:23.269Z,3.10
2023-07-16T07:28:49.735Z,3.30
2023-07-16T07:31:16.138Z,3.13
2023-07-16T07:33:42.591Z,3.38
2023-07-16T07:36:09.091Z,3.42
2023-07-16T07:38:35.653Z,3.38
2023-07-16T07:41:02.196Z,3.03
2023-07-16T07:43:28.700Z,3.97
2023-07-16T07:45:55.073Z,3.20
2023-07-16T07:48:22.875Z,3.15
2023-07-16T07:50:52.021Z,3.30
2023-07-16T07:53:19.909Z,3.88
2023-07-16T07:55:46.644Z,3.80
2023-07-16T07:58:13.116Z,3.65
2023-07-16T08:00:39.769Z,3.80
2023-07-16T08:03:06.400Z,4.28
2023-07-16T08:05:34.507Z,3.80
2023-07-16T08:08:00.979Z,4.18
2023-07-16T08:10:27.570Z,4.13
2023-07-16T08:12:53.969Z,3.60
2023-07-16T08:15:20.430Z,3.47
2023-07-16T08:17:47.137Z,3.25
2023-07-16T08:20:13.633Z,4.13
2023-07-16T08:22:40.475Z,3.60
2023-07-16T08:25:07.588Z,3.67
2023-07-16T08:27:34.072Z,3.85
2023-07-16T08:30:00.473Z,3.20
2023-07-16T08:32:27.145Z,3.63
2023-07-16T08:34:53.685Z,3.40
2023-07-16T08:37:20.118Z,3.95
2023-07-16T08:39:46.570Z,3.13
2023-07-16T08:42:13.214Z,3.80
2023-07-16T08:44:40.185Z,3.42
2023-07-16T08:47:07.010Z,5.15
2023-07-16T08:49:34.867Z,3.95
2023-07-16T08:52:02.191Z,3.85
2023-07-16T08:54:28.636Z,4.35
2023-07-16T08:56:55.213Z,3.88
2023-07-16T08:59:22.030Z,3.22
2023-07-16T09:01:49.324Z,4.10
2023-07-16T09:04:16.204Z,3.75
2023-07-16T09:06:42.986Z,3.90
2023-07-16T09:09:09.555Z,3.97
2023-07-16T09:11:35.949Z,3.00
2023-07-16T09:14:03.530Z,3.92
2023-07-16T09:16:33.485Z,3.67
2023-07-16T09:19:06.535Z,3.45
2023-07-16T09:21:35.924Z,3.53
2023-07-16T09:24:06.715Z,3.90
2023-07-16T09:26:33.177Z,3.70
2023-07-16T09:28:59.574Z,3.58
2023-07-16T09:31:26.032Z,4.18
2023-07-16T09:33:52.418Z,4.30
2023-07-16T09:36:27.710Z,3.50
2023-07-16T09:38:58.284Z,5.57
2023-07-16T09:41:25.554Z,3.72
2023-07-16T09:43:52.027Z,3.38
2023-07-16T09:46:18.910Z,3.30
2023-07-16T09:48:45.543Z,3.58
2023-07-16T09:51:13.513Z,4.20
2023-07-16T09:53:42.335Z,3.50
2023-07-16T09:56:11.098Z,4.15
2023-07-16T09:58:37.735Z,3.72
2023-07-16T10:01:05.094Z,3.55
2023-07-16T10:03:31.651Z,3.15
2023-07-16T10:06:16.339Z,4.57
2023-07-16T10:08:49.450Z,3.75
2023-07-16T10:11:19.637Z,3.38
2023-07-16T10:13:52.249Z,3.83
2023-07-16T10:16:25.729Z,3.28
2023-07-16T10:18:54.328Z,3.17
2023-07-16T10:21:24.296Z,3.95
2023-07-16T10:23:57.793Z,3.50
2023-07-16T10:26:27.313Z,3.30
2023-07-16T10:28:53.717Z,3.10
2023-07-16T10:31:24.316Z,3.22
2023-07-16T10:34:01.584Z,2.83
2023-07-16T10:36:28.139Z,3.30
2023-07-16T10:38:54.521Z,3.85
2023-07-16T10:41:21.600Z,3.08
2023-07-16T10:43:48.002Z,3.38
2023-07-16T10:46:14.579Z,3.30
2023-07-16T10:48:46.575Z,3.20
2023-07-16T10:51:14.910Z,3.55
2023-07-16T10:53:44.772Z,3.28
2023-07-16T10:56:11.267Z,3.22
2023-07-16T10:58:38.347Z,3.63
2023-07-16T11:01:04.978Z,3.50
2023-07-16T11:03:31.578Z,3.38
2023-07-16T11:05:58.156Z,3.15
2023-07-16T11:08:27.452Z,2.75
2023-07-16T11:10:55.891Z,2.70
2023-07-16T11:13:26.009Z,2.72
2023-07-16T11:15:52.469Z,3.20
2023-07-16T11:18:19.348Z,2.60
2023-07-16T11:20:45.842Z,2.47
2023-07-16T11:23:12.446Z,2.83
2023-07-16T11:25:38.932Z,2.85
2023-07-16T11:28:05.365Z,2.85
2023-07-16T11:30:31.897Z,3.17
2023-07-16T11:32:59.318Z,2.42
2023-07-16T11:35:26.744Z,2.58
2023-07-16T11:37:53.193Z,2.70
2023-07-16T11:40:20.702Z,2.35
2023-07-16T11:42:47.628Z,2.80
2023-07-16T11:45:27.522Z,2.63
2023-07-16T11:47:55.837Z,2.27
2023-07-16T11:50:24.806Z,2.53
2023-07-16T11:53:01.074Z,2.22
2023-07-16T11:55:27.525Z,2.42
2023-07-16T11:57:54.395Z,2.22
2023-07-16T12:00:22.818Z,2.05
2023-07-16T12:02:53.303Z,2.80
2023-07-16T12:05:33.631Z,2.58
2023-07-16T12:08:15.799Z,1.88
2023-07-16T12:10:45.961Z,1.80
2023-07-16T12:13:14.920Z,1.83
2023-07-16T12:15:42.079Z,1.50
2023-07-16T12:18:09.744Z,1.33
2023-07-16T12:20:37.473Z,1.00
2023-07-16T12:23:07.663Z,1.65
2023-07-16T12:25:34.128Z,1.52
2023-07-16T12:28:02.893Z,1.35
2023-07-16T12:30:29.457Z,1.45
2023-07-16T12:32:57.706Z,1.33
2023-07-16T12:35:24.326Z,1.40
2023-07-16T12:37:54.203Z,1.67
2023-07-16T12:40:20.901Z,1.50
2023-07-16T12:42:48.448Z,1.35
2023-07-16T12:45:14.950Z,1.60
2023-07-16T12:47:43.073Z,1.67
2023-07-16T12:50:09.815Z,1.90
2023-07-16T12:52:37.733Z,1.45
2023-07-16T12:55:04.636Z,2.85
2023-07-16T12:57:34.979Z,1.58
2023-07-16T13:00:02.893Z,1.40
2023-07-16T13:02:30.311Z,1.92
2023-07-16T13:04:59.032Z,1.45
2023-07-16T13:07:27.934Z,2.55
2023-07-16T13:10:04.653Z,1.65
2023-07-16T13:12:45.351Z,1.50
2023-07-16T13:15:21.697Z,1.45
2023-07-16T13:17:50.570Z,1.42
2023-07-16T13:20:22.415Z,1.15
2023-07-16T13:22:49.511Z,1.40
2023-07-16T13:25:19.061Z,1.40
2023-07-16T13:27:47.714Z,1.40
2023-07-16T13:30:15.055Z,1.35
2023-07-16T13:32:41.911Z,1.10
2023-07-16T13:35:09.640Z,1.10
2023-07-16T13:37:38.086Z,1.60
2023-07-16T13:40:06.306Z,1.40
2023-07-16T13:42:33.931Z,1.67
2023-07-16T13:45:01.024Z,1.30
2023-07-16T13:47:30.237Z,1.50
2023-07-16T13:50:01.562Z,2.00
2023-07-16T13:52:31.050Z,1.27
2023-07-16T13:54:57.553Z,1.13
2023-07-16T13:57:24.521Z,2.30
2023-07-16T13:59:51.664Z,1.35
2023-07-16T14:02:20.035Z,1.25
2023-07-16T14:04:47.044Z,1.27
2023-07-16T14:07:13.507Z,1.20
2023-07-16T14:09:39.868Z,1.60
2023-07-16T14:12:06.354Z,1.38
2023-07-16T14:14:32.777Z,0.93
2023-07-16T14:16:59.271Z,1.05
2023-07-16T14:19:25.801Z,1.27
2023-07-16T14:21:52.237Z,0.93
2023-07-16T14:24:18.744Z,1.10
2023-07-16T14:26:45.208Z,1.33
2023-07-16T14:29:12.429Z,1.70
2023-07-16T14:31:39.050Z,1.77
2023-07-16T14:34:05.485Z,1.50
2023-07-16T14:36:31.939Z,1.10
2023-07-16T14:38:58.714Z,2.38
2023-07-16T14:41:25.501Z,1.80
2023-07-16T14:43:51.988Z,1.27
2023-07-16T14:46:18.946Z,1.65
2023-07-16T14:48:46.806Z,1.15
2023-07-16T14:51:14.031Z,1.30
2023-07-16T14:53:40.398Z,1.10
2023-07-16T14:56:06.826Z,1.30
2023-07-16T14:58:33.879Z,1.75
2023-07-16T15:01:01.129Z,1.25
2023-07-16T15:03:27.583Z,1.20
2023-07-16T15:06:00.268Z,1.60
2023-07-16T15:08:30.595Z,1.75
2023-07-16T15:10:57.432Z,1.30
2023-07-16T15:13:26.317Z,1.27
2023-07-16T15:15:53.087Z,1.45
2023-07-16T15:18:20.456Z,1.77
2023-07-16T15:20:51.174Z,1.08
2023-07-16T15:23:17.835Z,1.40
2023-07-16T15:25:44.398Z,1.50
2023-07-16T15:28:12.857Z,1.70
2023-07-16T15:30:39.436Z,2.65
2023-07-16T15:33:05.956Z,1.17
2023-07-16T15:35:32.446Z,1.77
2023-07-16T15:38:00.953Z,1.70
2023-07-16T15:40:27.441Z,1.98
2023-07-16T15:42:54.213Z,2.00
2023-07-16T15:45:20.765Z,1.02
2023-07-16T15:47:47.719Z,1.63
2023-07-16T15:50:14.215Z,1.80
2023-07-16T15:52:40.595Z,1.48
2023-07-16T15:55:07.148Z,1.58
2023-07-16T15:57:33.633Z,1.55
2023-07-16T16:00:00.162Z,1.08
2023-07-16T16:02:26.750Z,1.70
2023-07-16T16:04:53.390Z,1.50
2023-07-16T16:07:19.831Z,1.92
2023-07-16T16:09:46.336Z,1.55
2023-07-16T16:12:12.732Z,1.50
2023-07-16T16:14:39.175Z,1.40
2023-07-16T16:17:08.089Z,1.67
2023-07-16T16:19:35.482Z,1.40
2023-07-16T16:22:02.413Z,1.75
2023-07-16T16:24:29.040Z,1.33
2023-07-16T16:26:55.504Z,1.45
2023-07-16T16:29:21.920Z,1.27
2023-07-16T16:31:48.413Z,1.40
2023-07-16T16:34:14.877Z,1.38
2023-07-16T16:36:41.914Z,1.40
2023-07-16T16:39:08.332Z,1.20
2023-07-16T16:41:34.759Z,1.55
2023-07-16T16:44:01.482Z,1.45
2023-07-16T16:46:28.037Z,1.70
2023-07-16T16:48:54.439Z,1.50
2023-07-16T16:51:20.978Z,1.73
2023-07-16T16:53:47.636Z,1.73
2023-07-16T16:56:14.654Z,1.58
2023-07-16T16:58:41.206Z,1.90
2023-07-16T17:01:07.704Z,1.48
2023-07-16T17:03:34.156Z,1.40
2023-07-16T17:06:01.498Z,1.88
2023-07-16T17:08:27.969Z,3.10
2023-07-16T17:10:54.533Z,1.38
2023-07-16T17:13:20.951Z,1.30
2023-07-16T17:15:47.452Z,2.00
2023-07-16T17:18:14.007Z,1.80
2023-07-16T17:20:40.647Z,1.88
2023-07-16T17:23:07.236Z,2.08
2023-07-16T17:25:33.758Z,1.67
2023-07-16T17:28:00.285Z,1.98
2023-07-16T17:30:26.841Z,1.73
2023-07-16T17:32:53.453Z,2.40
2023-07-16T17:35:19.948Z,2.42
2023-07-16T17:37:47.968Z,1.95
2023-07-16T17:40:15.751Z,2.33
2023-07-16T17:42:42.623Z,2.60
2023-07-16T17:45:09.390Z,1.95
2023-07-16T17:47:35.828Z,2.50
2023-07-16T17:50:02.340Z,2.10
2023-07-16T17:52:28.811Z,2.90
2023-07-16T17:54:55.276Z,2.40
2023-07-16T17:57:21.677Z,2.30
2023-07-16T17:59:48.118Z,2.20
2023-07-16T18:02:14.636Z,2.25
2023-07-16T18:04:42.266Z,2.97
2023-07-16T18:07:11.862Z,1.95
2023-07-16T18:09:38.365Z,3.45
2023-07-16T18:12:05.307Z,2.42
2023-07-16T18:14:31.879Z,2.28
2023-07-16T18:16:58.632Z,2.83
2023-07-16T18:19:28.768Z,2.35
2023-07-16T18:22:08.483Z,2.58
2023-07-16T18:24:43.053Z,2.55
2023-07-16T18:27:09.472Z,2.90
2023-07-16T18:29:36.237Z,1.92
2023-07-16T18:32:06.375Z,2.10
2023-07-16T18:34:34.096Z,2.75
2023-07-16T18:37:02.634Z,2.17
2023-07-16T18:39:29.106Z,2.45
2023-07-16T18:41:55.512Z,2.63
2023-07-16T18:44:23.368Z,1.88
2023-07-16T18:46:50.032Z,2.60
2023-07-16T18:49:18.736Z,2.08
2023-07-16T18:51:46.282Z,2.05
2023-07-16T18:54:12.902Z,6.32
2023-07-16T18:56:39.649Z,2.22
2023-07-16T18:59:07.333Z,2.45
2023-07-16T19:01:34.663Z,2.28
2023-07-16T19:04:02.953Z,2.20
2023-07-16T19:06:29.780Z,2.15
2023-07-16T19:08:56.298Z,2.15
2023-07-16T19:11:24.751Z,2.67
2023-07-16T19:13:51.265Z,1.98
2023-07-16T19:16:21.463Z,2.17
2023-07-16T19:18:48.177Z,2.22
2023-07-16T19:21:14.866Z,2.42
2023-07-16T19:23:41.943Z,1.90
2023-07-16T19:26:08.402Z,1.65
2023-07-16T19:28:34.920Z,1.48
2023-07-16T19:31:01.537Z,1.63
2023-07-16T19:33:28.345Z,1.60
2023-07-16T19:36:13.618Z,1.63
2023-07-16T19:38:42.002Z,1.73
2023-07-16T19:41:08.995Z,1.83
2023-07-16T19:43:35.555Z,1.70
2023-07-16T19:46:07.080Z,1.83
2023-07-16T19:48:34.358Z,1.60
2023-07-16T19:51:02.349Z,2.17
2023-07-16T19:53:28.810Z,1.85
2023-07-16T19:55:58.850Z,2.17
2023-07-16T19:58:25.913Z,1.35
2023-07-16T20:00:54.980Z,2.33
2023-07-16T20:03:22.766Z,1.40
2023-07-16T20:05:49.301Z,1.85
2023-07-16T20:08:16.766Z,1.55
2023-07-16T20:10:45.328Z,1.83
2023-07-16T20:13:13.746Z,1.85
2023-07-16T20:15:41.339Z,1.30
2023-07-16T20:18:08.119Z,1.40
2023-07-16T20:20:36.269Z,1.83
2023-07-16T20:23:03.927Z,1.10
2023-07-16T20:25:30.415Z,1.52
2023-07-16T20:27:59.128Z,1.60
2023-07-16T20:30:26.771Z,1.73
2023-07-16T20:32:55.740Z,1.45
2023-07-16T20:35:22.560Z,2.20
2023-07-16T20:37:49.553Z,1.60
2023-07-16T20:40:16.672Z,1.67
2023-07-16T20:42:45.402Z,1.75
2023-07-16T20:45:13.811Z,1.65
2023-07-16T20:47:40.403Z,1.73
2023-07-16T20:50:06.999Z,1.50
2023-07-16T20:52:33.500Z,1.52
2023-07-16T20:55:01.486Z,1.30
2023-07-16T20:57:33.686Z,1.52
2023-07-16T21:00:00.345Z,1.52
2023-07-16T21:02:26.941Z,1.20
2023-07-16T21:04:53.409Z,1.40
2023-07-16T21:07:19.843Z,1.75
2023-07-16T21:09:46.343Z,1.30
2023-07-16T21:12:12.803Z,1.60
2023-07-16T21:14:40.753Z,1.33
2023-07-16T21:17:07.480Z,1.63
2023-07-16T21:19:34.066Z,1.30
2023-07-16T21:22:01.082Z,1.48
2023-07-16T21:24:27.591Z,1.65
2023-07-16T21:26:54.023Z,1.60
2023-07-16T21:29:20.384Z,1.27
2023-07-16T21:31:47.645Z,1.08
2023-07-16T21:34:14.121Z,1.05
2023-07-16T21:36:40.588Z,1.30
2023-07-16T21:39:07.043Z,1.30
2023-07-16T21:41:33.515Z,1.33
2023-07-16T21:43:59.986Z,1.33
2023-07-16T21:46:26.545Z,1.30
2023-07-16T21:48:53.067Z,1.60
2023-07-16T21:51:19.638Z,2.42
2023-07-16T21:53:46.338Z,1.40
2023-07-16T21:56:14.661Z,1.45
2023-07-16T21:58:41.216Z,1.33
2023-07-16T22:01:07.662Z,1.35
2023-07-16T22:03:34.103Z,1.10
2023-07-16T22:06:00.635Z,1.10
2023-07-16T22:08:27.118Z,1.60
2023-07-16T22:10:53.788Z,1.30
2023-07-16T22:13:20.246Z,1.35
2023-07-16T22:15:48.019Z,1.30
2023-07-16T22:18:14.618Z,1.50
2023-07-16T22:20:41.104Z,1.90
2023-07-16T22:23:07.756Z,2.55
2023-07-16T22:25:34.306Z,2.28
2023-07-16T22:28:00.836Z,1.40
2023-07-16T22:30:27.213Z,1.42
2023-07-16T22:32:53.688Z,1.80
2023-07-16T22:35:20.174Z,1.50
2023-07-16T22:37:46.622Z,1.33
2023-07-16T22:40:13.358Z,2.45
2023-07-16T22:42:39.736Z,1.50
2023-07-16T22:45:06.377Z,2.75
2023-07-16T22:47:33.032Z,1.30
2023-07-16T22:49:59.495Z,1.55
2023-07-16T22:52:25.975Z,1.77
2023-07-16T22:54:52.520Z,1.27
2023-07-16T22:57:18.996Z,1.50
2023-07-16T22:59:45.425Z,1.58
2023-07-16T23:02:11.833Z,1.80
2023-07-16T23:04:38.245Z,1.50
2023-07-16T23:07:04.652Z,1.92
2023-07-16T23:09:31.139Z,3.00
2023-07-16T23:11:57.671Z,1.52
2023-07-16T23:14:24.118Z,2.10
2023-07-16T23:16:50.533Z,1.80
2023-07-16T23:19:17.048Z,1.95
2023-07-16T23:21:43.562Z,1.95
2023-07-16T23:24:10.320Z,1.95
2023-07-16T23:26:36.757Z,2.13
2023-07-16T23:29:03.446Z,2.28
2023-07-16T23:31:29.971Z,2.45
2023-07-16T23:33:56.477Z,2.05
2023-07-16T23:36:22.874Z,2.00
2023-07-16T23:38:49.321Z,2.08
2023-07-16T23:41:15.899Z,2.00
2023-07-16T23:43:42.504Z,2.50
2023-07-16T23:46:09.321Z,1.70
2023-07-16T23:48:35.938Z,2.70
2023-07-16T23:51:02.524Z,1.77
2023-07-16T23:53:29.033Z,2.08
2023-07-16T23:55:55.519Z,2.03
2023-07-16T23:58:22.181Z,2.28
